createdAt,value
2018-05-15T00:02:15.531Z,40.46
2018-05-15T00:04:45.777Z,40.88
2018-05-15T00:07:13.381Z,40.99
2018-05-15T00:09:42.046Z,41.09
2018-05-15T00:14:48.847Z,40.90
2018-05-15T00:17:18.971Z,40.68
2018-05-15T00:22:24.785Z,40.90
2018-05-15T00:24:52.305Z,40.73
2018-05-15T00:27:20.129Z,40.87
2018-05-15T00:29:47.639Z,40.76
2018-05-15T00:32:15.427Z,40.83
2018-05-15T00:34:42.866Z,41.07
2018-05-15T00:37:10.371Z,41.26
2018-05-15T00:39:37.827Z,41.55
2018-05-15T00:42:14.908Z,41.20
2018-05-15T00:44:42.377Z,41.34
2018-05-15T00:47:10.146Z,41.68
2018-05-15T00:49:37.608Z,41.92
2018-05-15T00:52:28.807Z,42.04
2018-05-15T00:55:08.708Z,41.87
2018-05-15T00:57:36.517Z,42.03
2018-05-15T01:00:03.976Z,42.16
2018-05-15T01:02:31.430Z,42.24
2018-05-15T01:04:58.881Z,42.34
2018-05-15T01:07:26.314Z,42.51
2018-05-15T01:09:53.768Z,42.56
2018-05-15T01:12:21.827Z,42.58
2018-05-15T01:14:49.570Z,42.86
2018-05-15T01:17:17.329Z,42.68
2018-05-15T01:19:45.096Z,42.67
2018-05-15T01:22:14.016Z,42.74
2018-05-15T01:24:41.478Z,43.12
2018-05-15T01:27:09.043Z,43.09
2018-05-15T01:29:36.562Z,43.11
2018-05-15T01:32:04.110Z,43.36
2018-05-15T01:34:31.613Z,43.42
2018-05-15T01:36:59.146Z,43.83
2018-05-15T01:39:26.852Z,43.46
2018-05-15T01:41:54.303Z,43.53
2018-05-15T01:44:21.904Z,43.63
2018-05-15T01:46:49.427Z,43.61
2018-05-15T01:49:17.021Z,43.54
2018-05-15T01:51:44.463Z,43.38
2018-05-15T01:54:11.982Z,43.72
2018-05-15T01:56:40.212Z,43.91
2018-05-15T01:59:07.659Z,44.08
2018-05-15T02:01:35.148Z,43.85
2018-05-15T02:04:02.618Z,43.95
2018-05-15T02:06:31.189Z,43.89
2018-05-15T02:08:58.690Z,43.91
2018-05-15T02:11:26.132Z,43.81
2018-05-15T02:13:53.586Z,43.94
2018-05-15T02:16:21.026Z,43.89
2018-05-15T02:18:48.872Z,44.11
2018-05-15T02:21:16.341Z,44.41
2018-05-15T02:23:44.705Z,44.38
2018-05-15T02:26:12.160Z,45.06
2018-05-15T02:28:39.608Z,45.22
2018-05-15T02:31:07.102Z,45.42
2018-05-15T02:33:34.782Z,45.49
2018-05-15T02:36:02.251Z,45.51
2018-05-15T02:38:29.677Z,45.30
2018-05-15T02:40:57.142Z,45.29
2018-05-15T02:43:24.594Z,45.35
2018-05-15T02:45:52.077Z,45.47
2018-05-15T02:48:19.575Z,45.54
2018-05-15T02:50:47.043Z,45.83
2018-05-15T02:53:14.766Z,45.69
2018-05-15T02:55:42.234Z,45.84
2018-05-15T02:58:09.666Z,46.20
2018-05-15T03:00:37.150Z,46.21
2018-05-15T03:06:02.012Z,46.50
2018-05-15T03:08:29.481Z,46.33
2018-05-15T03:10:56.942Z,46.35
2018-05-15T03:13:30.516Z,46.62
2018-05-15T03:15:58.301Z,46.63
2018-05-15T03:18:25.781Z,46.62
2018-05-15T03:20:53.440Z,46.62
2018-05-15T03:23:22.782Z,46.89
2018-05-15T03:25:50.915Z,47.16
2018-05-15T03:28:19.577Z,47.12
2018-05-15T03:30:48.063Z,47.10
2018-05-15T03:33:15.582Z,46.86
2018-05-15T03:35:43.200Z,47.06
2018-05-15T03:38:11.568Z,47.36
2018-05-15T03:40:38.998Z,47.64
2018-05-15T03:49:06.501Z,48.02
2018-05-15T03:51:33.968Z,48.16
2018-05-15T03:54:01.427Z,48.01
2018-05-15T03:56:28.875Z,48.17
2018-05-15T03:58:56.317Z,47.96
2018-05-15T04:01:35.603Z,47.78
2018-05-15T04:04:15.235Z,47.69
2018-05-15T04:06:54.535Z,47.62
2018-05-15T04:09:22.098Z,47.72
2018-05-15T04:11:49.573Z,47.96
2018-05-15T04:14:17.034Z,47.83
2018-05-15T04:16:44.489Z,47.98
2018-05-15T04:19:11.999Z,48.07
2018-05-15T04:21:39.486Z,47.90
2018-05-15T04:24:06.931Z,47.81
2018-05-15T04:26:34.407Z,47.63
2018-05-15T04:29:01.860Z,47.58
2018-05-15T04:31:29.297Z,47.38
2018-05-15T04:33:56.784Z,47.28
2018-05-15T04:36:25.242Z,47.33
2018-05-15T04:38:52.952Z,47.50
2018-05-15T04:41:20.641Z,47.60
2018-05-15T04:43:48.611Z,47.38
2018-05-15T04:46:16.020Z,48.05
2018-05-15T04:48:43.487Z,47.88
2018-05-15T04:51:11.028Z,47.95
2018-05-15T04:53:38.491Z,47.95
2018-05-15T04:56:05.958Z,48.01
2018-05-15T04:58:33.440Z,47.95
2018-05-15T05:01:00.968Z,48.13
2018-05-15T05:06:30.696Z,48.41
2018-05-15T05:08:58.631Z,48.34
2018-05-15T05:14:28.581Z,48.42
2018-05-15T05:16:56.450Z,48.22
2018-05-15T05:19:23.911Z,48.60
2018-05-15T05:21:51.369Z,48.83
2018-05-15T05:24:18.851Z,48.90
2018-05-15T05:26:46.390Z,48.43
2018-05-15T05:29:14.135Z,48.48
2018-05-15T05:31:41.603Z,48.47
2018-05-15T05:34:09.072Z,48.18
2018-05-15T05:36:36.524Z,47.93
2018-05-15T05:39:03.986Z,48.05
2018-05-15T05:41:36.474Z,47.85
2018-05-15T05:44:03.907Z,47.84
2018-05-15T05:46:31.404Z,48.04
2018-05-15T05:48:58.887Z,47.86
2018-05-15T05:51:26.346Z,47.84
2018-05-15T05:53:53.802Z,48.12
2018-05-15T05:56:21.264Z,48.26
2018-05-15T05:58:48.748Z,47.98
2018-05-15T06:01:16.204Z,47.91
2018-05-15T06:03:43.655Z,47.82
2018-05-15T06:06:11.113Z,48.03
2018-05-15T06:08:38.583Z,48.03
2018-05-15T06:11:06.028Z,47.45
2018-05-15T06:13:38.417Z,46.92
2018-05-15T06:16:05.857Z,47.16
2018-05-15T06:18:33.807Z,46.99
2018-05-15T06:21:01.357Z,47.35
2018-05-15T06:23:28.777Z,47.60
2018-05-15T06:25:56.227Z,46.72
2018-05-15T06:28:23.700Z,46.11
2018-05-15T06:30:51.296Z,45.94
2018-05-15T06:33:19.698Z,46.04
2018-05-15T06:35:47.168Z,45.82
2018-05-15T06:38:14.688Z,45.73
2018-05-15T06:40:42.170Z,45.47
2018-05-15T06:43:23.909Z,46.09
2018-05-15T06:45:51.354Z,45.81
2018-05-15T06:48:18.800Z,45.39
2018-05-15T06:50:46.239Z,45.58
2018-05-15T06:53:32.992Z,46.11
2018-05-15T06:56:00.432Z,45.99
2018-05-15T06:58:27.900Z,46.47
2018-05-15T07:00:55.367Z,46.37
2018-05-15T07:03:22.903Z,46.27
2018-05-15T07:05:50.350Z,46.32
2018-05-15T07:08:18.318Z,46.36
2018-05-15T07:10:45.805Z,45.77
2018-05-15T07:13:13.279Z,45.93
2018-05-15T07:15:40.736Z,45.97
2018-05-15T07:18:08.330Z,45.81
2018-05-15T07:20:35.814Z,45.92
2018-05-15T07:23:03.358Z,46.58
2018-05-15T07:25:30.817Z,46.79
2018-05-15T07:27:58.329Z,45.62
2018-05-15T07:30:25.829Z,46.23
2018-05-15T07:32:53.312Z,45.87
2018-05-15T07:35:20.762Z,45.53
2018-05-15T07:37:48.241Z,44.13
2018-05-15T07:40:15.984Z,44.66
2018-05-15T07:42:43.449Z,45.03
2018-05-15T07:45:10.880Z,45.49
2018-05-15T07:47:38.393Z,45.22
2018-05-15T07:50:06.898Z,44.96
2018-05-15T07:52:34.814Z,44.99
2018-05-15T07:55:02.332Z,44.92
2018-05-15T07:57:29.806Z,44.76
2018-05-15T07:59:57.194Z,44.42
2018-05-15T08:02:25.513Z,44.88
2018-05-15T08:04:53.062Z,44.65
2018-05-15T08:07:20.482Z,45.56
2018-05-15T08:09:47.906Z,45.37
2018-05-15T08:12:15.384Z,44.88
2018-05-15T08:14:42.805Z,44.67
2018-05-15T08:17:10.250Z,44.23
2018-05-15T08:19:37.942Z,44.70
2018-05-15T08:22:05.393Z,44.61
2018-05-15T08:24:32.885Z,44.07
2018-05-15T08:27:00.332Z,45.17
2018-05-15T08:29:27.926Z,44.65
2018-05-15T08:31:55.362Z,44.35
2018-05-15T08:34:22.809Z,44.03
2018-05-15T08:36:50.245Z,43.16
2018-05-15T08:39:17.907Z,41.97
2018-05-15T08:41:55.097Z,42.61
2018-05-15T08:44:22.634Z,43.16
2018-05-15T08:46:50.116Z,43.01
2018-05-15T08:49:17.563Z,43.35
2018-05-15T08:51:50.047Z,43.52
2018-05-15T08:54:17.508Z,43.68
2018-05-15T08:56:44.966Z,43.26
2018-05-15T08:59:12.443Z,43.81
2018-05-15T09:01:39.877Z,43.77
2018-05-15T09:04:07.345Z,43.57
2018-05-15T09:06:34.795Z,43.70
2018-05-15T09:09:02.262Z,43.28
2018-05-15T09:11:29.758Z,43.06
2018-05-15T09:13:57.195Z,42.78
2018-05-15T09:16:24.675Z,42.72
2018-05-15T09:18:52.136Z,42.84
2018-05-15T09:21:19.599Z,42.66
2018-05-15T09:23:47.085Z,42.05
2018-05-15T09:26:14.559Z,42.24
2018-05-15T09:28:42.045Z,41.90
2018-05-15T09:31:09.475Z,41.43
2018-05-15T09:33:41.931Z,41.52
2018-05-15T09:36:09.372Z,40.55
2018-05-15T09:38:36.849Z,39.90
2018-05-15T09:41:04.305Z,39.58
2018-05-15T09:46:26.371Z,39.66
2018-05-15T09:48:53.933Z,39.57
2018-05-15T09:51:21.379Z,38.65
2018-05-15T09:53:48.834Z,38.22
2018-05-15T09:56:16.281Z,38.89
2018-05-15T09:58:43.753Z,38.70
2018-05-15T10:01:12.199Z,39.28
2018-05-15T10:03:39.687Z,39.57
2018-05-15T10:06:07.150Z,40.03
2018-05-15T10:08:34.600Z,39.05
2018-05-15T10:11:02.033Z,39.54
2018-05-15T10:13:29.499Z,39.10
2018-05-15T10:15:56.973Z,38.64
2018-05-15T10:18:24.440Z,39.19
2018-05-15T10:20:51.925Z,39.07
2018-05-15T10:23:19.423Z,39.54
2018-05-15T10:25:46.879Z,39.32
2018-05-15T10:28:14.302Z,39.03
2018-05-15T10:30:41.742Z,38.66
2018-05-15T10:33:09.208Z,39.50
2018-05-15T10:35:36.671Z,38.77
2018-05-15T10:38:04.127Z,38.83
2018-05-15T10:40:31.577Z,38.19
2018-05-15T10:42:59.053Z,38.43
2018-05-15T10:45:26.579Z,37.31
2018-05-15T10:47:54.019Z,37.06
2018-05-15T10:50:21.882Z,37.24
2018-05-15T10:52:49.360Z,37.56
2018-05-15T10:55:16.838Z,36.75
2018-05-15T10:57:44.280Z,36.79
2018-05-15T11:00:11.726Z,37.80
2018-05-15T11:02:39.253Z,37.51
2018-05-15T11:05:06.847Z,37.12
2018-05-15T11:07:34.304Z,36.61
2018-05-15T11:10:01.793Z,35.58
2018-05-15T11:12:29.257Z,35.22
2018-05-15T11:14:56.697Z,35.21
2018-05-15T11:17:24.151Z,35.45
2018-05-15T11:20:03.516Z,36.06
2018-05-15T11:22:42.703Z,35.31
2018-05-15T11:25:10.166Z,34.59
2018-05-15T11:27:37.618Z,34.05
2018-05-15T11:30:05.078Z,34.41
2018-05-15T11:32:32.532Z,35.78
2018-05-15T11:35:00.049Z,37.64
2018-05-15T11:37:27.541Z,38.61
2018-05-15T11:39:55.020Z,39.51
2018-05-15T11:42:22.476Z,39.33
2018-05-15T11:44:49.920Z,39.17
2018-05-15T11:47:17.468Z,39.27
2018-05-15T11:49:46.636Z,38.05
2018-05-15T11:52:13.775Z,38.11
2018-05-15T11:54:40.612Z,38.53
2018-05-15T11:57:08.148Z,39.01
2018-05-15T11:59:35.609Z,39.34
2018-05-15T12:02:03.275Z,38.94
2018-05-15T12:04:30.699Z,40.41
2018-05-15T12:06:58.696Z,43.03
2018-05-15T12:09:26.184Z,44.30
2018-05-15T12:11:53.675Z,44.94
2018-05-15T12:14:21.143Z,45.06
2018-05-15T12:16:48.653Z,44.92
2018-05-15T12:19:16.112Z,45.32
2018-05-15T12:21:43.564Z,45.30
2018-05-15T12:24:11.017Z,44.86
2018-05-15T12:26:38.482Z,44.28
2018-05-15T12:29:05.936Z,43.52
2018-05-15T12:31:33.395Z,43.57
2018-05-15T12:34:00.833Z,42.09
2018-05-15T12:36:28.259Z,42.61
2018-05-15T12:38:56.434Z,43.37
2018-05-15T12:41:23.988Z,43.08
2018-05-15T12:43:51.396Z,42.55
2018-05-15T12:46:18.862Z,43.06
2018-05-15T12:48:46.444Z,42.89
2018-05-15T12:51:13.771Z,42.72
2018-05-15T12:53:41.196Z,42.75
2018-05-15T12:56:08.630Z,43.16
2018-05-15T12:58:36.110Z,41.63
2018-05-15T13:01:03.574Z,41.15
2018-05-15T13:03:31.018Z,40.52
2018-05-15T13:05:58.506Z,39.09
2018-05-15T13:08:25.970Z,39.26
2018-05-15T13:10:53.457Z,38.90
2018-05-15T13:13:20.931Z,37.77
2018-05-15T13:15:48.416Z,37.85
2018-05-15T13:18:15.890Z,37.66
2018-05-15T13:20:43.325Z,38.96
2018-05-15T13:23:11.019Z,38.86
2018-05-15T13:25:38.448Z,38.42
2018-05-15T13:28:06.726Z,38.41
2018-05-15T13:30:34.252Z,39.16
2018-05-15T13:33:01.756Z,40.29
2018-05-15T13:35:29.346Z,40.56
2018-05-15T13:37:56.709Z,40.65
2018-05-15T13:40:24.211Z,42.79
2018-05-15T13:42:51.671Z,44.56
2018-05-15T13:45:19.150Z,45.69
2018-05-15T13:47:46.613Z,45.94
2018-05-15T13:50:14.166Z,46.07
2018-05-15T13:52:41.688Z,46.70
2018-05-15T13:55:09.152Z,45.48
2018-05-15T13:57:36.634Z,45.78
2018-05-15T14:00:04.169Z,45.54
2018-05-15T14:02:31.615Z,45.42
2018-05-15T14:04:59.217Z,45.50
2018-05-15T14:07:26.756Z,46.20
2018-05-15T14:09:54.209Z,47.93
2018-05-15T14:12:21.679Z,48.83
2018-05-15T14:14:49.403Z,49.86
2018-05-15T14:17:17.058Z,51.74
2018-05-15T14:19:44.512Z,51.95
2018-05-15T14:22:11.988Z,51.71
2018-05-15T14:24:39.502Z,51.79
2018-05-15T14:27:06.923Z,51.84
2018-05-15T14:29:34.376Z,52.57
2018-05-15T14:32:01.841Z,51.84
2018-05-15T14:34:29.323Z,52.71
2018-05-15T14:36:56.948Z,52.67
2018-05-15T14:39:24.530Z,53.15
2018-05-15T14:42:03.748Z,53.97
2018-05-15T14:44:31.214Z,54.96
2018-05-15T14:46:59.272Z,55.47
2018-05-15T14:49:28.428Z,56.54
2018-05-15T14:51:56.175Z,56.99
2018-05-15T14:54:23.667Z,57.44
2018-05-15T14:56:51.156Z,57.47
2018-05-15T14:59:18.651Z,58.17
2018-05-15T15:01:51.075Z,57.68
2018-05-15T15:04:18.527Z,57.35
2018-05-15T15:06:46.081Z,58.12
2018-05-15T15:09:13.559Z,58.48
2018-05-15T15:11:41.061Z,56.89
2018-05-15T15:14:08.572Z,56.17
2018-05-15T15:16:36.261Z,56.44
2018-05-15T15:19:03.839Z,56.54
2018-05-15T15:21:31.382Z,56.05
2018-05-15T15:23:58.976Z,55.69
2018-05-15T15:26:27.388Z,54.48
2018-05-15T15:28:55.099Z,54.41
2018-05-15T15:31:23.405Z,52.95
2018-05-15T15:33:50.925Z,53.43
2018-05-15T15:36:18.738Z,53.51
2018-05-15T15:38:46.779Z,53.50
2018-05-15T15:41:14.901Z,53.38
2018-05-15T15:43:42.449Z,53.80
2018-05-15T15:46:09.948Z,53.95
2018-05-15T15:48:37.681Z,54.11
2018-05-15T15:51:05.167Z,53.79
2018-05-15T15:53:32.640Z,53.85
2018-05-15T15:56:00.171Z,53.55
2018-05-15T15:58:27.638Z,54.07
2018-05-15T16:00:55.088Z,53.21
2018-05-15T16:03:23.415Z,52.98
2018-05-15T16:05:51.218Z,52.97
2018-05-15T16:08:18.691Z,53.04
2018-05-15T16:10:47.072Z,53.22
2018-05-15T16:13:19.575Z,53.53
2018-05-15T16:15:47.263Z,53.09
2018-05-15T16:18:14.862Z,53.46
2018-05-15T16:20:43.458Z,53.47
2018-05-15T16:23:10.982Z,53.12
2018-05-15T16:25:38.438Z,52.90
2018-05-15T16:28:05.893Z,53.08
2018-05-15T16:30:33.339Z,53.33
2018-05-15T16:33:10.516Z,53.40
2018-05-15T16:35:38.063Z,52.73
2018-05-15T16:38:06.449Z,53.06
2018-05-15T16:40:33.939Z,53.89
2018-05-15T16:43:01.496Z,54.23
2018-05-15T16:45:28.951Z,54.72
2018-05-15T16:47:56.459Z,54.88
2018-05-15T16:50:24.297Z,54.55
2018-05-15T16:52:51.755Z,54.95
2018-05-15T16:55:19.220Z,55.02
2018-05-15T16:57:47.039Z,55.06
2018-05-15T17:00:14.575Z,54.90
2018-05-15T17:02:42.039Z,55.26
2018-05-15T17:05:09.493Z,55.43
2018-05-15T17:07:36.944Z,55.92
2018-05-15T17:10:04.457Z,55.46
2018-05-15T17:12:32.425Z,54.96
2018-05-15T17:14:59.940Z,55.27
2018-05-15T17:17:27.371Z,55.75
2018-05-15T17:19:54.909Z,56.28
2018-05-15T17:22:22.354Z,56.34
2018-05-15T17:24:49.837Z,56.13
2018-05-15T17:27:17.313Z,55.92
2018-05-15T17:29:44.835Z,55.83
2018-05-15T17:32:12.344Z,56.21
2018-05-15T17:34:39.817Z,56.07
2018-05-15T17:37:07.272Z,56.52
2018-05-15T17:39:34.777Z,56.37
2018-05-15T17:42:02.246Z,56.43
2018-05-15T17:44:29.700Z,56.31
2018-05-15T17:46:57.166Z,56.54
2018-05-15T17:49:25.482Z,56.04
2018-05-15T17:51:52.998Z,55.92
2018-05-15T17:54:21.302Z,56.16
2018-05-15T17:56:48.741Z,57.00
2018-05-15T17:59:16.212Z,57.50
2018-05-15T18:01:43.664Z,57.89
2018-05-15T18:04:11.146Z,58.18
2018-05-15T18:06:38.596Z,58.79
2018-05-15T18:09:06.040Z,58.86
2018-05-15T18:11:33.520Z,59.44
2018-05-15T18:14:00.951Z,60.34
2018-05-15T18:16:28.431Z,60.28
2018-05-15T18:18:55.892Z,60.11
2018-05-15T18:21:23.437Z,59.96
2018-05-15T18:23:50.804Z,60.67
2018-05-15T18:26:18.286Z,60.91
2018-05-15T18:28:45.777Z,60.92
2018-05-15T18:31:13.205Z,61.07
2018-05-15T18:33:40.686Z,61.66
2018-05-15T18:36:08.165Z,62.10
2018-05-15T18:38:35.611Z,62.98
2018-05-15T18:41:03.135Z,63.59
2018-05-15T18:43:30.591Z,63.90
2018-05-15T18:45:58.056Z,64.56
2018-05-15T18:48:25.514Z,64.96
2018-05-15T18:50:53.135Z,65.52
2018-05-15T18:53:20.570Z,66.04
2018-05-15T18:55:48.116Z,66.46
2018-05-15T18:58:15.624Z,66.58
2018-05-15T19:00:43.161Z,66.52
2018-05-15T19:03:10.626Z,66.12
2018-05-15T19:05:38.082Z,65.81
2018-05-15T19:08:05.631Z,65.84
2018-05-15T19:10:33.088Z,65.57
2018-05-15T19:13:00.594Z,65.96
2018-05-15T19:15:28.313Z,66.12
2018-05-15T19:17:55.841Z,66.46
2018-05-15T19:20:23.328Z,65.72
2018-05-15T19:22:50.865Z,65.68
2018-05-15T19:25:18.364Z,65.05
2018-05-15T19:27:46.805Z,64.50
2018-05-15T19:30:14.348Z,64.14
2018-05-15T19:32:41.870Z,64.02
2018-05-15T19:35:09.397Z,63.83
2018-05-15T19:37:36.832Z,64.45
2018-05-15T19:40:10.011Z,64.47
2018-05-15T19:42:42.753Z,64.15
2018-05-15T19:45:10.797Z,64.32
2018-05-15T19:47:38.267Z,64.16
2018-05-15T19:50:05.775Z,64.17
2018-05-15T19:52:57.138Z,63.50
2018-05-15T19:55:24.826Z,63.49
2018-05-15T19:57:52.313Z,63.48
2018-05-15T20:00:20.081Z,63.42
2018-05-15T20:02:47.653Z,63.65
2018-05-15T20:05:15.165Z,63.86
2018-05-15T20:07:42.663Z,65.02
2018-05-15T20:10:10.141Z,65.94
2018-05-15T20:12:37.583Z,67.45
2018-05-15T20:15:05.062Z,67.96
2018-05-15T20:17:32.498Z,68.86
2018-05-15T20:19:59.980Z,68.73
2018-05-15T20:22:27.586Z,68.64
2018-05-15T20:24:57.071Z,69.25
2018-05-15T20:27:24.555Z,69.45
2018-05-15T20:29:52.011Z,68.92
2018-05-15T20:32:19.513Z,69.34
2018-05-15T20:34:50.084Z,69.75
2018-05-15T20:37:17.462Z,69.65
2018-05-15T20:39:44.908Z,70.88
2018-05-15T20:42:12.506Z,72.01
2018-05-15T20:44:39.896Z,72.87
2018-05-15T20:47:08.325Z,73.98
2018-05-15T20:49:35.809Z,74.52
2018-05-15T20:52:03.307Z,75.31
2018-05-15T20:54:30.762Z,75.69
2018-05-15T20:56:58.196Z,75.55
2018-05-15T20:59:25.663Z,76.03
2018-05-15T21:01:53.136Z,75.41
2018-05-15T21:04:21.229Z,75.87
2018-05-15T21:06:48.681Z,76.50
2018-05-15T21:09:16.534Z,76.81
2018-05-15T21:11:43.968Z,77.28
2018-05-15T21:14:11.481Z,77.91
2018-05-15T21:16:38.923Z,77.20
2018-05-15T21:19:06.381Z,76.90
2018-05-15T21:21:33.820Z,76.27
2018-05-15T21:24:01.277Z,76.00
2018-05-15T21:26:28.868Z,75.81
2018-05-15T21:28:56.326Z,75.04
2018-05-15T21:31:23.816Z,74.96
2018-05-15T21:33:51.269Z,74.75
2018-05-15T21:36:19.568Z,74.71
2018-05-15T21:38:47.518Z,74.33
2018-05-15T21:41:17.154Z,74.20
2018-05-15T21:43:44.994Z,73.88
2018-05-15T21:46:12.577Z,73.88
2018-05-15T21:48:41.448Z,74.43
2018-05-15T21:51:09.061Z,74.36
2018-05-15T21:54:00.218Z,74.77
2018-05-15T21:56:29.122Z,74.41
2018-05-15T21:58:57.381Z,74.28
2018-05-15T22:01:25.547Z,73.91
2018-05-15T22:04:07.364Z,74.60
2018-05-15T22:06:36.909Z,74.84
2018-05-15T22:09:05.409Z,75.43
2018-05-15T22:11:44.544Z,75.28
2018-05-15T22:14:24.228Z,75.34
2018-05-15T22:17:03.586Z,75.48
2018-05-15T22:19:42.943Z,75.56
2018-05-15T22:22:29.643Z,74.63
2018-05-15T22:24:57.354Z,74.43
2018-05-15T22:27:24.826Z,74.66
2018-05-15T22:29:52.614Z,75.58
2018-05-15T22:32:20.065Z,75.95
2018-05-15T22:34:47.939Z,76.25
2018-05-15T22:37:15.605Z,76.17
2018-05-15T22:39:43.058Z,76.13
2018-05-15T22:42:10.545Z,75.77
2018-05-15T22:44:38.104Z,75.70
2018-05-15T22:47:05.580Z,75.66
2018-05-15T22:49:33.036Z,76.01
2018-05-15T22:52:00.585Z,76.50
2018-05-15T22:54:28.111Z,76.35
2018-05-15T22:56:55.624Z,76.33
2018-05-15T22:59:23.065Z,76.04
2018-05-15T23:01:50.768Z,75.22
2018-05-15T23:04:18.600Z,75.32
2018-05-15T23:06:46.106Z,74.77
2018-05-15T23:09:13.572Z,75.12
2018-05-15T23:11:41.002Z,75.39
2018-05-15T23:14:08.507Z,75.70
2018-05-15T23:16:36.053Z,76.00
2018-05-15T23:19:03.640Z,75.82
2018-05-15T23:21:31.309Z,75.06
2018-05-15T23:26:52.035Z,74.73
2018-05-15T23:29:19.595Z,74.35
2018-05-15T23:31:46.963Z,74.70
2018-05-15T23:34:14.401Z,74.93
2018-05-15T23:36:41.840Z,75.21
2018-05-15T23:39:09.295Z,74.99
2018-05-15T23:41:36.804Z,75.42
2018-05-15T23:44:04.978Z,75.15
2018-05-15T23:46:32.438Z,75.31
2018-05-15T23:48:59.911Z,75.38
2018-05-15T23:51:27.376Z,75.48
2018-05-15T23:53:54.832Z,75.75
2018-05-15T23:56:22.271Z,75.67
2018-05-15T23:58:49.785Z,75.72
